createdAt,value
2022-12-11T00:01:17.636Z,100519.75
2022-12-11T00:03:46.396Z,100514.19
2022-12-11T00:06:15.746Z,100506.72
2022-12-11T00:08:43.297Z,100507.69
2022-12-11T00:11:13.211Z,100526.91
2022-12-11T00:13:40.361Z,100515.88
2022-12-11T00:16:07.579Z,100507.13
2022-12-11T00:18:35.198Z,100521.69
2022-12-11T00:21:08.785Z,100520.00
2022-12-11T00:23:36.953Z,100517.44
2022-12-11T00:26:12.805Z,100517.41
2022-12-11T00:28:40.476Z,100521.19
2022-12-11T00:31:10.034Z,100518.13
2022-12-11T00:33:36.900Z,100528.44
2022-12-11T00:36:04.758Z,100523.34
2022-12-11T00:38:31.701Z,100526.00
2022-12-11T00:41:00.083Z,100521.50
2022-12-11T00:43:26.900Z,100531.00
2022-12-11T00:45:53.718Z,100521.78
2022-12-11T00:48:20.771Z,100528.50
2022-12-11T00:50:47.591Z,100529.25
2022-12-11T00:53:14.591Z,100536.84
2022-12-11T00:55:42.897Z,100527.59
2022-12-11T00:58:10.741Z,100521.78
2022-12-11T01:00:38.622Z,100527.91
2022-12-11T01:03:06.011Z,100524.47
2022-12-11T01:05:33.452Z,100526.13
2022-12-11T01:08:01.892Z,100526.19
2022-12-11T01:10:28.938Z,100533.91
2022-12-11T01:13:01.942Z,100519.41
2022-12-11T01:15:32.884Z,100519.47
2022-12-11T01:18:00.339Z,100519.38
2022-12-11T01:20:28.402Z,100531.94
2022-12-11T01:22:58.135Z,100541.19
2022-12-11T01:25:26.323Z,100531.00
2022-12-11T01:27:54.851Z,100533.47
2022-12-11T01:30:24.624Z,100527.63
2022-12-11T01:32:52.565Z,100527.81
2022-12-11T01:35:19.997Z,100529.66
2022-12-11T01:37:47.502Z,100533.25
2022-12-11T01:40:18.028Z,100534.03
2022-12-11T01:42:45.037Z,100528.31
2022-12-11T01:45:23.831Z,100535.94
2022-12-11T01:48:05.857Z,100538.44
2022-12-11T01:50:36.938Z,100528.22
2022-12-11T01:53:08.334Z,100524.91
2022-12-11T01:55:37.860Z,100526.63
2022-12-11T01:58:06.420Z,100527.69
2022-12-11T02:00:33.394Z,100520.91
2022-12-11T02:03:00.239Z,100523.47
2022-12-11T02:05:27.276Z,100524.31
2022-12-11T02:08:00.325Z,100531.97
2022-12-11T02:10:58.446Z,100539.47
2022-12-11T02:13:44.621Z,100537.50
2022-12-11T02:16:26.268Z,100541.78
2022-12-11T02:19:01.325Z,100536.19
2022-12-11T02:21:37.931Z,100521.28
2022-12-11T02:24:33.439Z,100526.53
2022-12-11T02:27:23.541Z,100537.34
2022-12-11T02:30:07.000Z,100537.91
2022-12-11T02:32:45.539Z,100540.34
2022-12-11T02:35:18.680Z,100528.41
2022-12-11T02:37:48.576Z,100523.53
2022-12-11T02:40:21.767Z,100528.72
2022-12-11T02:42:50.761Z,100522.66
2022-12-11T02:45:19.745Z,100512.69
2022-12-11T02:47:49.525Z,100519.00
2022-12-11T02:50:20.252Z,100527.72
2022-12-11T02:52:49.801Z,100522.69
2022-12-11T02:55:17.631Z,100528.66
2022-12-11T02:57:49.134Z,100523.63
2022-12-11T03:00:17.016Z,100529.66
2022-12-11T03:02:44.036Z,100530.59
2022-12-11T03:05:12.940Z,100532.22
2022-12-11T03:07:42.722Z,100532.06
2022-12-11T03:10:14.538Z,100526.03
2022-12-11T03:12:46.974Z,100528.00
2022-12-11T03:15:20.470Z,100530.81
2022-12-11T03:18:15.413Z,100544.47
2022-12-11T03:20:48.055Z,100548.69
2022-12-11T03:23:21.703Z,100548.00
2022-12-11T03:25:59.422Z,100543.94
2022-12-11T03:28:33.046Z,100548.31
2022-12-11T03:31:07.944Z,100540.63
2022-12-11T03:33:41.716Z,100530.22
2022-12-11T03:36:17.499Z,100538.50
2022-12-11T03:38:52.026Z,100546.88
2022-12-11T03:41:22.183Z,100536.84
2022-12-11T03:43:52.924Z,100518.34
2022-12-11T03:46:24.921Z,100529.31
2022-12-11T03:48:53.826Z,100542.06
2022-12-11T03:51:21.786Z,100520.94
2022-12-11T03:53:48.802Z,100530.34
2022-12-11T03:56:17.486Z,100524.56
2022-12-11T03:58:44.447Z,100530.56
2022-12-11T04:01:11.989Z,100531.47
2022-12-11T04:03:39.061Z,100534.75
2022-12-11T04:06:05.982Z,100534.63
2022-12-11T04:08:32.817Z,100530.34
2022-12-11T04:11:18.463Z,100521.84
2022-12-11T04:13:45.305Z,100526.00
2022-12-11T04:16:12.062Z,100520.97
2022-12-11T04:18:57.462Z,100516.81
2022-12-11T04:21:43.185Z,100522.91
2022-12-11T04:24:15.824Z,100520.44
2022-12-11T04:26:46.353Z,100517.97
2022-12-11T04:29:14.757Z,100516.13
2022-12-11T04:31:41.784Z,100515.34
2022-12-11T04:34:12.050Z,100525.53
2022-12-11T04:36:38.870Z,100518.72
2022-12-11T04:39:06.392Z,100507.72
2022-12-11T04:41:33.889Z,100515.44
2022-12-11T04:44:00.658Z,100515.44
2022-12-11T04:46:36.307Z,100524.66
2022-12-11T04:49:03.159Z,100520.50
2022-12-11T04:51:30.477Z,100522.25
2022-12-11T04:53:58.590Z,100523.06
2022-12-11T04:56:25.878Z,100518.88
2022-12-11T04:58:52.867Z,100514.72
2022-12-11T05:01:22.426Z,100518.97
2022-12-11T05:03:50.319Z,100515.56
2022-12-11T05:06:17.491Z,100512.31
2022-12-11T05:08:45.916Z,100504.72
2022-12-11T05:11:15.330Z,100515.75
2022-12-11T05:13:42.892Z,100513.97
2022-12-11T05:16:12.095Z,100516.50
2022-12-11T05:18:39.489Z,100519.00
2022-12-11T05:21:09.369Z,100503.72
2022-12-11T05:23:36.251Z,100501.22
2022-12-11T05:26:06.342Z,100494.53
2022-12-11T05:28:36.481Z,100510.59
2022-12-11T05:31:07.702Z,100497.03
2022-12-11T05:33:35.251Z,100508.91
2022-12-11T05:36:02.068Z,100503.84
2022-12-11T05:38:28.837Z,100502.94
2022-12-11T05:40:58.217Z,100516.50
2022-12-11T05:43:25.391Z,100506.28
2022-12-11T05:45:52.270Z,100505.44
2022-12-11T05:48:19.059Z,100509.78
2022-12-11T05:50:55.885Z,100515.75
2022-12-11T05:53:22.671Z,100499.66
2022-12-11T05:55:49.363Z,100507.28
2022-12-11T05:58:16.188Z,100505.63
2022-12-11T06:00:43.602Z,100506.47
2022-12-11T06:03:10.644Z,100530.22
2022-12-11T06:05:41.693Z,100529.41
2022-12-11T06:08:08.919Z,100537.84
2022-12-11T06:10:35.848Z,100548.00
2022-12-11T06:13:02.628Z,100544.59
2022-12-11T06:15:29.369Z,100538.69
2022-12-11T06:17:56.142Z,100536.97
2022-12-11T06:20:22.839Z,100544.66
2022-12-11T06:22:49.598Z,100548.00
2022-12-11T06:25:16.351Z,100559.03
2022-12-11T06:27:43.228Z,100545.44
2022-12-11T06:30:10.453Z,100540.34
2022-12-11T06:32:37.222Z,100545.38
2022-12-11T06:35:04.168Z,100553.06
2022-12-11T06:37:30.962Z,100590.34
2022-12-11T06:39:57.741Z,100567.47
2022-12-11T06:42:24.515Z,100553.94
2022-12-11T06:44:51.292Z,100547.13
2022-12-11T06:47:18.105Z,100540.38
2022-12-11T06:49:44.865Z,100569.19
2022-12-11T06:52:16.611Z,100575.97
2022-12-11T06:54:45.135Z,100566.63
2022-12-11T06:57:11.907Z,100560.69
2022-12-11T06:59:38.916Z,100556.41
2022-12-11T07:02:05.784Z,100558.09
2022-12-11T07:04:32.784Z,100577.56
2022-12-11T07:06:59.562Z,100575.84
2022-12-11T07:09:26.379Z,100573.25
2022-12-11T07:11:53.704Z,100575.69
2022-12-11T07:14:20.820Z,100576.50
2022-12-11T07:16:47.721Z,100571.44
2022-12-11T07:19:14.583Z,100573.16
2022-12-11T07:21:41.396Z,100575.66
2022-12-11T07:24:08.890Z,100574.84
2022-12-11T07:26:35.763Z,100579.09
2022-12-11T07:29:02.554Z,100584.22
2022-12-11T07:31:30.433Z,100584.25
2022-12-11T07:34:03.920Z,100582.53
2022-12-11T07:36:31.185Z,100587.53
2022-12-11T07:38:59.584Z,100585.91
2022-12-11T07:41:28.549Z,100585.91
2022-12-11T07:43:56.462Z,100596.88
2022-12-11T07:46:26.419Z,100593.44
2022-12-11T07:48:54.032Z,100586.66
2022-12-11T07:51:28.816Z,100590.13
2022-12-11T07:53:59.631Z,100587.63
2022-12-11T07:56:28.365Z,100587.66
2022-12-11T07:58:55.310Z,100596.91
2022-12-11T08:01:26.108Z,100602.88
2022-12-11T08:03:53.701Z,100598.69
2022-12-11T08:06:33.502Z,100591.09
2022-12-11T08:09:02.110Z,100608.03
2022-12-11T08:11:29.087Z,100588.56
2022-12-11T08:13:56.435Z,100580.91
2022-12-11T08:16:23.922Z,100596.16
2022-12-11T08:18:51.500Z,100578.47
2022-12-11T08:21:22.965Z,100594.59
2022-12-11T08:23:51.495Z,100580.19
2022-12-11T08:26:24.231Z,100584.44
2022-12-11T08:28:51.370Z,100588.66
2022-12-11T08:31:18.902Z,100573.44
2022-12-11T08:33:46.611Z,100584.44
2022-12-11T08:36:16.100Z,100571.72
2022-12-11T08:38:43.078Z,100583.56
2022-12-11T08:41:18.285Z,100592.03
2022-12-11T08:43:46.050Z,100575.13
2022-12-11T08:46:14.095Z,100575.13
2022-12-11T08:48:42.698Z,100592.03
2022-12-11T08:51:14.476Z,100578.50
2022-12-11T08:53:42.122Z,100569.19
2022-12-11T08:56:15.320Z,100578.50
2022-12-11T08:58:43.583Z,100581.03
2022-12-11T09:01:13.050Z,100588.66
2022-12-11T09:03:40.530Z,100586.97
2022-12-11T09:06:09.953Z,100587.78
2022-12-11T09:08:37.020Z,100583.41
2022-12-11T09:11:09.898Z,100587.59
2022-12-11T09:13:37.700Z,100591.75
2022-12-11T09:16:09.678Z,100590.81
2022-12-11T09:18:37.615Z,100582.41
2022-12-11T09:21:07.831Z,100599.41
2022-12-11T09:23:35.019Z,100613.00
2022-12-11T09:26:06.173Z,100614.69
2022-12-11T09:28:33.560Z,100606.31
2022-12-11T09:31:00.869Z,100604.66
2022-12-11T09:33:28.071Z,100608.94
2022-12-11T09:36:01.629Z,100607.25
2022-12-11T09:38:28.918Z,100606.44
2022-12-11T09:40:56.382Z,100605.63
2022-12-11T09:43:40.542Z,100596.31
2022-12-11T09:46:12.071Z,100594.56
2022-12-11T09:48:42.212Z,100586.03
2022-12-11T09:51:19.087Z,100599.53
2022-12-11T09:53:46.295Z,100594.47
2022-12-11T09:56:36.261Z,100601.25
2022-12-11T09:59:18.654Z,100591.94
2022-12-11T10:02:03.494Z,100584.25
2022-12-11T10:04:33.156Z,100597.72
2022-12-11T10:07:09.403Z,100590.13
2022-12-11T10:09:39.113Z,100602.00
2022-12-11T10:12:11.877Z,100598.69
2022-12-11T10:15:10.831Z,100597.06
2022-12-11T10:17:39.518Z,100576.75
2022-12-11T10:20:28.765Z,100569.16
2022-12-11T10:22:56.898Z,100574.25
2022-12-11T10:25:37.034Z,100570.75
2022-12-11T10:28:19.252Z,100578.25
2022-12-11T10:31:10.053Z,100574.91
2022-12-11T10:34:02.039Z,100556.34
2022-12-11T10:36:34.305Z,100559.75
2022-12-11T10:39:01.862Z,100565.56
2022-12-11T10:41:49.468Z,100576.59
2022-12-11T10:44:28.763Z,100569.00
2022-12-11T10:47:18.015Z,100568.19
2022-12-11T10:49:54.868Z,100565.69
2022-12-11T10:52:28.037Z,100574.06
2022-12-11T10:55:03.957Z,100560.41
2022-12-11T10:57:39.398Z,100551.00
2022-12-11T11:00:08.835Z,100556.16
2022-12-11T11:02:38.522Z,100556.97
2022-12-11T11:05:26.993Z,100568.06
2022-12-11T11:08:11.712Z,100556.16
2022-12-11T11:10:38.549Z,100558.59
2022-12-11T11:13:05.319Z,100554.53
2022-12-11T11:15:32.543Z,100549.63
2022-12-11T11:18:11.566Z,100550.50
2022-12-11T11:20:47.477Z,100539.53
2022-12-11T11:23:16.500Z,100556.50
2022-12-11T11:25:54.120Z,100545.50
2022-12-11T11:28:36.293Z,100535.31
2022-12-11T11:31:05.375Z,100538.72
2022-12-11T11:33:34.509Z,100529.34
2022-12-11T11:36:05.365Z,100537.84
2022-12-11T11:38:37.463Z,100520.88
2022-12-11T11:41:20.214Z,100524.28
2022-12-11T11:43:51.367Z,100518.31
2022-12-11T11:46:25.627Z,100519.19
2022-12-11T11:49:44.661Z,100524.31
2022-12-11T11:52:37.985Z,100505.69
2022-12-11T11:55:17.336Z,100505.69
2022-12-11T11:57:57.718Z,100490.41
2022-12-11T12:00:33.626Z,100501.41
2022-12-11T12:03:14.226Z,100491.25
2022-12-11T12:05:54.148Z,100507.34
2022-12-11T12:08:33.386Z,100506.50
2022-12-11T12:11:16.354Z,100499.72
2022-12-11T12:13:58.862Z,100481.91
2022-12-11T12:19:27.422Z,100502.22
2022-12-11T12:21:54.915Z,100491.81
2022-12-11T12:24:35.943Z,100494.78
2022-12-11T12:27:29.171Z,100484.59
2022-12-11T12:30:22.401Z,100483.69
2022-12-11T12:32:59.215Z,100484.41
2022-12-11T12:35:25.956Z,100480.50
2022-12-11T12:38:07.523Z,100468.50
2022-12-11T12:40:47.594Z,100467.19
2022-12-11T12:43:36.107Z,100479.44
2022-12-11T12:46:18.139Z,100471.25
2022-12-11T12:48:45.650Z,100466.59
2022-12-11T12:51:16.262Z,100465.44
2022-12-11T12:53:52.672Z,100480.06
2022-12-11T12:56:21.666Z,100472.56
2022-12-11T12:58:48.608Z,100474.41
2022-12-11T13:01:19.503Z,100481.09
2022-12-11T13:03:58.442Z,100488.38
2022-12-11T13:06:38.741Z,100472.69
2022-12-11T13:09:25.858Z,100476.06
2022-12-11T13:11:58.554Z,100461.59
2022-12-11T13:14:31.175Z,100470.84
2022-12-11T13:17:25.111Z,100477.22
2022-12-11T13:20:10.660Z,100483.19
2022-12-11T13:22:49.113Z,100466.94
2022-12-11T13:26:17.025Z,100469.59
2022-12-11T13:28:43.695Z,100474.91
2022-12-11T13:31:16.069Z,100486.00
2022-12-11T13:33:49.889Z,100485.88
2022-12-11T13:36:24.290Z,100489.94
2022-12-11T13:39:17.140Z,100494.56
2022-12-11T13:41:51.678Z,100488.13
2022-12-11T13:44:26.190Z,100498.41
2022-12-11T13:46:56.878Z,100499.28
2022-12-11T13:49:27.939Z,100507.91
2022-12-11T13:51:57.396Z,100495.25
2022-12-11T13:54:24.922Z,100504.66
2022-12-11T13:57:21.118Z,100505.53
2022-12-11T13:59:53.423Z,100511.50
2022-12-11T14:02:38.986Z,100509.84
2022-12-11T14:05:09.759Z,100505.66
2022-12-11T14:07:42.846Z,100507.34
2022-12-11T14:10:31.243Z,100516.69
2022-12-11T14:13:07.539Z,100527.69
2022-12-11T14:15:36.331Z,100520.06
2022-12-11T14:18:05.159Z,100509.09
2022-12-11T14:20:34.073Z,100515.00
2022-12-11T14:23:09.519Z,100519.22
2022-12-11T14:25:36.249Z,100521.75
2022-12-11T14:28:03.812Z,100522.59
2022-12-11T14:30:33.415Z,100520.06
2022-12-11T14:33:04.629Z,100509.78
2022-12-11T14:35:39.181Z,100523.22
2022-12-11T14:38:16.735Z,100517.28
2022-12-11T14:40:47.324Z,100527.44
2022-12-11T14:43:45.653Z,100531.69
2022-12-11T14:46:35.331Z,100514.78
2022-12-11T14:49:06.552Z,100513.94
2022-12-11T14:51:39.098Z,100513.97
2022-12-11T14:54:08.439Z,100530.03
2022-12-11T14:56:35.272Z,100533.53
2022-12-11T14:59:07.116Z,100532.72
2022-12-11T15:01:37.047Z,100539.50
2022-12-11T15:04:15.961Z,100531.88
2022-12-11T15:06:48.154Z,100540.25
2022-12-11T15:09:25.998Z,100529.25
2022-12-11T15:11:55.735Z,100544.41
2022-12-11T15:14:24.137Z,100552.91
2022-12-11T15:16:53.881Z,100550.47
2022-12-11T15:19:30.319Z,100540.34
2022-12-11T15:22:03.940Z,100546.28
2022-12-11T15:24:40.181Z,100527.53
2022-12-11T15:27:18.329Z,100533.38
2022-12-11T15:29:45.188Z,100545.22
2022-12-11T15:32:14.088Z,100546.88
2022-12-11T15:34:48.624Z,100540.97
2022-12-11T15:37:19.630Z,100534.25
2022-12-11T15:39:46.476Z,100541.88
2022-12-11T15:42:23.564Z,100546.19
2022-12-11T15:44:50.551Z,100558.09
2022-12-11T15:47:23.248Z,100538.63
2022-12-11T15:49:50.259Z,100539.47
2022-12-11T15:52:17.196Z,100546.97
2022-12-11T15:54:44.131Z,100536.00
2022-12-11T15:57:17.797Z,100534.28
2022-12-11T15:59:48.659Z,100558.78
2022-12-11T16:02:15.906Z,100541.06
2022-12-11T16:04:42.975Z,100547.06
2022-12-11T16:07:21.643Z,100544.56
2022-12-11T16:09:48.690Z,100552.97
2022-12-11T16:12:15.941Z,100552.94
2022-12-11T16:14:44.126Z,100556.25
2022-12-11T16:17:15.456Z,100559.66
2022-12-11T16:19:44.022Z,100543.66
2022-12-11T16:22:12.716Z,100547.88
2022-12-11T16:24:40.529Z,100548.78
2022-12-11T16:27:09.681Z,100542.91
2022-12-11T16:29:39.609Z,100542.06
2022-12-11T16:32:08.396Z,100545.47
2022-12-11T16:34:36.117Z,100556.47
2022-12-11T16:37:05.906Z,100547.09
2022-12-11T16:39:37.492Z,100546.19
2022-12-11T16:42:06.318Z,100547.84
2022-12-11T16:44:33.372Z,100535.19
2022-12-11T16:47:00.525Z,100546.25
2022-12-11T16:49:27.394Z,100544.56
2022-12-11T16:51:54.213Z,100544.56
2022-12-11T16:54:21.148Z,100539.53
2022-12-11T16:56:48.222Z,100535.28
2022-12-11T16:59:14.962Z,100528.44
2022-12-11T17:01:41.915Z,100530.97
2022-12-11T17:04:08.905Z,100519.19
2022-12-11T17:06:35.702Z,100525.16
2022-12-11T17:09:02.690Z,100530.22
2022-12-11T17:11:29.433Z,100517.50
2022-12-11T17:13:59.456Z,100527.59
2022-12-11T17:16:29.633Z,100522.44
2022-12-11T17:18:57.749Z,100530.88
2022-12-11T17:21:25.122Z,100529.16
2022-12-11T17:23:52.021Z,100530.84
2022-12-11T17:26:19.164Z,100534.25
2022-12-11T17:28:46.185Z,100531.75
2022-12-11T17:31:17.709Z,100532.63
2022-12-11T17:33:46.250Z,100542.81
2022-12-11T17:36:15.399Z,100547.09
2022-12-11T17:38:42.278Z,100546.28
2022-12-11T17:41:15.468Z,100553.03
2022-12-11T17:43:47.829Z,100538.63
2022-12-11T17:46:14.873Z,100553.84
2022-12-11T17:48:41.583Z,100548.81
2022-12-11T17:51:11.270Z,100551.31
2022-12-11T17:53:38.180Z,100545.34
2022-12-11T17:56:07.454Z,100547.88
2022-12-11T17:58:35.102Z,100558.94
2022-12-11T18:01:08.123Z,100554.69
2022-12-11T18:03:35.582Z,100556.38
2022-12-11T18:06:09.685Z,100558.88
2022-12-11T18:08:36.848Z,100538.53
2022-12-11T18:11:11.207Z,100549.44
2022-12-11T18:13:38.816Z,100541.03
2022-12-11T18:16:27.640Z,100550.28
2022-12-11T18:18:56.492Z,100555.38
2022-12-11T18:21:30.160Z,100558.88
2022-12-11T18:23:57.905Z,100559.78
2022-12-11T18:26:24.901Z,100551.34
2022-12-11T18:28:53.095Z,100559.72
2022-12-11T18:31:21.502Z,100559.63
2022-12-11T18:33:48.848Z,100566.47
2022-12-11T18:36:18.366Z,100547.91
2022-12-11T18:38:47.098Z,100549.66
2022-12-11T18:41:15.698Z,100552.19
2022-12-11T18:43:43.494Z,100548.81
2022-12-11T18:46:16.022Z,100541.19
2022-12-11T18:48:44.313Z,100553.06
2022-12-11T18:51:14.959Z,100551.38
2022-12-11T18:53:41.694Z,100551.31
2022-12-11T18:56:12.235Z,100554.72
2022-12-11T18:58:39.244Z,100553.06
2022-12-11T19:01:18.193Z,100553.94
